Terminal Aerodrome Forecast
Issued by NWS

Home | Current Version | Previous Version | Text Only | Print | Product List | Glossary On
Versions: 1 2 3 4 5 6 7 8 9 10 11 12 13
700
FTUS42 KTAE 221127
TAFECP
TAF
KECP 221127Z 2212/2312 14008KT P6SM BKN250
     FM221800 17010KT P6SM BKN025
     FM222100 17009KT 6SM -TSRA BKN025CB
     FM230100 20006KT P6SM OVC010=

USA.gov is the U.S. government's official web portal to all federal, state and local government web resources and services.